Time;durP1;ratioP1;P1;durP2;ratioP2;P2;SDS_P1;SDS_P2;PMS_P1;PMS_P2;Temp;Humidity;BMP_temperature;BMP_pressure;BME280_temperature;BME280_humidity;BME280_pressure;Samples;Min_cycle;Max_cycle;Signal;HPM_P1;HPM_P2
2022/04/05 00:01:22;;;;;;;5.67;4.03;;;6.80;99.90;;;;;;5094373;28;20174;-65
2022/04/05 00:03:48;;;;;;;4.73;3.73;;;6.80;99.90;;;;;;5094081;28;20162;-66
2022/04/05 00:06:13;;;;;;;4.57;3.70;;;6.70;99.90;;;;;;5094014;28;20164;-66
2022/04/05 00:08:39;;;;;;;5.23;4.00;;;6.60;99.90;;;;;;5094330;28;20232;-66
2022/04/05 00:11:04;;;;;;;5.57;4.37;;;6.60;99.90;;;;;;5076108;28;20654;-65
2022/04/05 00:13:30;;;;;;;5.73;4.10;;;6.50;99.90;;;;;;5093529;28;20447;-66
2022/04/05 00:15:56;;;;;;;4.73;4.00;;;6.50;99.90;;;;;;5094084;28;20205;-65
2022/04/05 00:18:21;;;;;;;5.53;3.93;;;6.40;99.90;;;;;;5093425;28;20584;-65
2022/04/05 00:20:47;;;;;;;5.80;4.27;;;6.40;99.90;;;;;;5093582;28;20180;-65
2022/04/05 00:23:13;;;;;;;6.10;4.30;;;6.40;99.90;;;;;;5093806;28;20170;-65
2022/04/05 00:25:39;;;;;;;6.70;5.13;;;6.40;99.90;;;;;;5076061;28;20207;-65
2022/04/05 00:28:05;;;;;;;7.57;4.47;;;6.30;99.90;;;;;;5094046;28;20171;-66
2022/04/05 00:30:30;;;;;;;6.67;5.90;;;6.20;99.90;;;;;;5110656;28;20501;-66
2022/04/05 00:32:56;;;;;;;6.63;5.20;;;6.20;99.90;;;;;;5094081;28;20162;-66
2022/04/05 00:35:23;;;;;;;6.67;5.53;;;6.10;99.90;;;;;;5093273;28;20240;-64
2022/04/05 00:37:49;;;;;;;7.93;6.03;;;6.20;99.90;;;;;;5094093;28;20771;-64
2022/04/05 00:40:15;;;;;;;6.40;5.77;;;6.10;99.90;;;;;;5093299;28;20201;-65
2022/04/05 00:42:40;;;;;;;6.30;5.23;;;6.00;99.90;;;;;;5093626;28;20162;-66
2022/04/05 00:45:07;;;;;;;6.63;5.23;;;6.10;99.90;;;;;;5093525;28;20250;-64
2022/04/05 00:47:35;;;;;;;7.70;4.90;;;6.00;99.90;;;;;;5093042;28;20176;-65
2022/04/05 00:50:01;;;;;;;7.20;5.37;;;6.00;99.90;;;;;;5075741;28;20493;-65
2022/04/05 00:52:27;;;;;;;5.17;4.40;;;6.00;99.90;;;;;;5093480;28;20488;-65
2022/04/05 00:54:54;;;;;;;6.03;4.73;;;6.00;99.90;;;;;;5093391;28;20222;-65
2022/04/05 00:57:21;;;;;;;9.13;6.83;;;6.00;99.90;;;;;;5109212;28;20211;-64
2022/04/05 00:59:50;;;;;;;6.47;5.23;;;5.90;99.90;;;;;;5093560;28;20165;-65
2022/04/05 01:02:20;;;;;;;8.03;6.53;;;5.90;99.90;;;;;;5093170;28;20258;-64
2022/04/05 01:04:50;;;;;;;7.90;4.60;;;5.90;99.90;;;;;;5092994;28;20163;-65
2022/04/05 01:07:19;;;;;;;6.93;5.27;;;5.80;99.90;;;;;;5074698;28;20179;-65
2022/04/05 01:09:45;;;;;;;7.87;5.50;;;5.90;99.90;;;;;;5108682;28;20174;-65
2022/04/05 01:12:13;;;;;;;6.33;5.30;;;5.80;99.90;;;;;;5075491;28;20173;-66
2022/04/05 01:14:40;;;;;;;8.53;6.53;;;5.80;99.90;;;;;;5093142;28;20165;-65
2022/04/05 01:17:07;;;;;;;11.90;7.27;;;5.80;99.90;;;;;;5093121;28;20201;-66
2022/04/05 01:19:34;;;;;;;7.70;5.40;;;5.80;99.90;;;;;;5093519;28;20160;-64
2022/04/05 01:22:00;;;;;;;8.63;7.20;;;5.70;99.90;;;;;;5093422;28;20242;-64
2022/04/05 01:24:26;;;;;;;8.53;7.00;;;5.80;99.90;;;;;;5093035;28;20195;-65
2022/04/05 01:26:54;;;;;;;9.13;7.30;;;5.80;99.90;;;;;;5097030;28;20171;-67
2022/04/05 01:29:21;;;;;;;8.87;6.97;;;5.70;99.90;;;;;;5097326;28;20167;-64
2022/04/05 01:31:49;;;;;;;8.07;7.03;;;5.80;99.90;;;;;;5096665;28;20171;-64
2022/04/05 01:34:18;;;;;;;9.57;7.47;;;5.70;99.90;;;;;;5096370;28;20168;-65
2022/04/05 01:36:47;;;;;;;9.17;7.37;;;5.70;99.90;;;;;;5096664;28;20246;-65
2022/04/05 01:39:15;;;;;;;9.33;7.73;;;5.70;99.90;;;;;;5096391;28;20194;-66
2022/04/05 01:41:41;;;;;;;6.77;4.93;;;5.70;99.90;;;;;;5096770;28;20662;-64
2022/04/05 01:44:10;;;;;;;9.27;5.60;;;5.70;99.90;;;;;;5096947;28;20607;-64
2022/04/05 01:46:36;;;;;;;7.73;5.60;;;5.70;99.90;;;;;;5096738;28;20189;-64
2022/04/05 01:49:08;;;;;;;9.20;7.17;;;5.70;99.90;;;;;;5097155;28;20167;-65
2022/04/05 01:51:36;;;;;;;7.03;5.50;;;5.70;99.90;;;;;;5098507;28;20219;-64
2022/04/05 01:54:05;;;;;;;9.73;7.50;;;5.70;99.90;;;;;;5099047;28;20199;-65
2022/04/05 01:56:32;;;;;;;7.43;5.07;;;5.60;99.90;;;;;;5100931;28;20685;-64
2022/04/05 01:58:58;;;;;;;9.57;7.10;;;5.70;99.90;;;;;;5099887;28;20201;-65
2022/04/05 02:01:24;;;;;;;8.70;6.90;;;5.60;99.90;;;;;;5100521;28;20155;-66
2022/04/05 02:03:50;;;;;;;8.07;7.13;;;5.60;99.90;;;;;;5101350;28;20176;-66
2022/04/05 02:06:16;;;;;;;8.67;5.70;;;5.60;99.90;;;;;;5096787;28;20173;-65
2022/04/05 02:08:41;;;;;;;7.83;6.67;;;5.60;99.90;;;;;;5096250;28;20508;-65
2022/04/05 02:11:07;;;;;;;7.47;6.40;;;5.60;99.90;;;;;;5078228;28;20192;-65
2022/04/05 02:13:33;;;;;;;7.60;6.60;;;5.60;99.90;;;;;;5096005;28;20243;-65
2022/04/05 02:16:02;;;;;;;8.03;6.90;;;5.70;99.90;;;;;;5096880;28;20582;-66
2022/04/05 02:18:28;;;;;;;8.30;7.10;;;5.60;99.90;;;;;;5096714;28;20228;-66
2022/04/05 02:20:55;;;;;;;8.00;6.40;;;5.60;99.90;;;;;;5099786;28;20282;-66
2022/04/05 02:23:21;;;;;;;9.30;6.33;;;5.70;99.90;;;;;;5103235;28;20174;-68
2022/04/05 02:25:46;;;;;;;9.83;6.70;;;5.60;99.90;;;;;;5101369;28;20169;-66
2022/04/05 02:28:12;;;;;;;8.67;6.80;;;5.70;99.90;;;;;;5078938;28;20177;-65
2022/04/05 02:30:39;;;;;;;5.90;4.70;;;5.60;99.90;;;;;;5096472;28;20498;-65
2022/04/05 02:33:05;;;;;;;7.73;6.77;;;5.70;99.90;;;;;;5095950;28;20161;-65
2022/04/05 02:35:30;;;;;;;7.30;5.67;;;5.70;99.90;;;;;;5095743;28;20472;-65
2022/04/05 02:37:59;;;;;;;7.07;5.63;;;5.70;99.90;;;;;;5095763;28;20210;-65
2022/04/05 02:40:25;;;;;;;4.83;3.97;;;5.70;99.90;;;;;;5095112;28;20578;-66
2022/04/05 02:42:51;;;;;;;6.67;5.60;;;5.60;99.90;;;;;;5095502;28;20191;-65
2022/04/05 02:45:17;;;;;;;7.00;5.50;;;5.60;99.90;;;;;;5095565;28;20190;-64
2022/04/05 02:47:43;;;;;;;6.77;5.63;;;5.70;99.90;;;;;;5095845;28;20177;-66
2022/04/05 02:50:09;;;;;;;4.70;4.20;;;5.60;99.90;;;;;;5077038;28;20172;-65
2022/04/05 02:52:35;;;;;;;6.23;5.53;;;5.60;99.90;;;;;;5095466;28;20169;-64
2022/04/05 02:55:01;;;;;;;7.17;5.33;;;5.50;99.90;;;;;;5094777;28;20308;-66
2022/04/05 02:57:27;;;;;;;4.97;4.13;;;5.50;99.90;;;;;;5095143;28;20198;-66
2022/04/05 02:59:54;;;;;;;6.13;4.63;;;5.50;99.90;;;;;;5094814;28;20164;-65
2022/04/05 03:02:19;;;;;;;3.83;3.20;;;5.50;99.90;;;;;;5095416;28;20184;-65
2022/04/05 03:04:45;;;;;;;6.27;5.13;;;5.50;99.90;;;;;;5094682;28;20162;-65
2022/04/05 03:07:11;;;;;;;6.03;4.27;;;5.50;99.90;;;;;;5095610;28;20502;-64
2022/04/05 03:09:36;;;;;;;6.80;5.27;;;5.50;99.90;;;;;;5095224;28;20186;-64
2022/04/05 03:12:02;;;;;;;4.83;3.67;;;5.40;99.90;;;;;;5095557;28;20166;-64
2022/04/05 03:14:28;;;;;;;5.83;4.10;;;5.40;99.90;;;;;;5094938;28;20167;-66
2022/04/05 03:16:53;;;;;;;5.00;4.33;;;5.40;99.90;;;;;;5094377;28;20166;-65
2022/04/05 03:19:19;;;;;;;4.57;3.43;;;5.40;99.90;;;;;;5094643;28;20163;-65
2022/04/05 03:21:44;;;;;;;5.40;4.90;;;5.40;99.90;;;;;;5096581;28;20169;-65
2022/04/05 03:24:10;;;;;;;5.80;5.20;;;5.40;99.90;;;;;;5096249;28;20597;-64
2022/04/05 03:26:36;;;;;;;6.17;5.53;;;5.30;99.90;;;;;;5094459;28;20220;-66
2022/04/05 03:29:01;;;;;;;5.97;5.23;;;5.40;99.90;;;;;;5077143;28;20507;-65
2022/04/05 03:31:27;;;;;;;5.57;5.00;;;5.40;99.90;;;;;;5094964;28;20185;-66
2022/04/05 03:33:53;;;;;;;4.80;4.00;;;5.40;99.90;;;;;;5094913;28;20165;-66
2022/04/05 03:36:18;;;;;;;6.70;4.83;;;5.40;99.90;;;;;;5095182;28;20229;-65
2022/04/05 03:38:44;;;;;;;5.93;5.03;;;5.50;99.90;;;;;;5076522;28;20302;-65
2022/04/05 03:41:10;;;;;;;5.17;4.63;;;5.40;99.90;;;;;;5094898;28;20213;-64
2022/04/05 03:43:35;;;;;;;8.07;4.60;;;5.50;99.90;;;;;;5094485;28;20161;-65
2022/04/05 03:46:01;;;;;;;5.47;3.93;;;5.40;99.90;;;;;;5093897;28;20164;-65
2022/04/05 03:48:26;;;;;;;4.93;4.13;;;5.50;99.90;;;;;;5093439;28;20246;-65
2022/04/05 03:50:52;;;;;;;5.33;4.30;;;5.60;99.90;;;;;;5094478;28;20173;-65
2022/04/05 03:53:18;;;;;;;5.60;4.20;;;5.60;99.90;;;;;;5094006;28;20169;-65
2022/04/05 03:55:43;;;;;;;5.30;4.37;;;5.60;99.90;;;;;;5094643;28;20635;-66
2022/04/05 03:58:12;;;;;;;5.00;4.40;;;5.60;99.90;;;;;;5093874;28;20607;-65
2022/04/05 04:00:38;;;;;;;4.97;4.47;;;5.60;99.90;;;;;;5094244;28;20179;-66
2022/04/05 04:03:04;;;;;;;7.07;4.70;;;5.60;99.90;;;;;;5094181;28;20163;-65
2022/04/05 04:05:29;;;;;;;4.60;3.40;;;5.60;99.90;;;;;;5093790;28;20174;-65
2022/04/05 04:07:55;;;;;;;5.23;4.17;;;5.70;99.90;;;;;;5094093;28;20249;-66
2022/04/05 04:10:21;;;;;;;5.13;4.63;;;5.70;99.90;;;;;;5075477;28;20186;-66
2022/04/05 04:12:47;;;;;;;3.63;2.80;;;5.70;99.90;;;;;;5094071;28;20170;-65
2022/04/05 04:15:12;;;;;;;3.97;2.90;;;5.60;99.90;;;;;;5093874;28;20159;-66
2022/04/05 04:17:38;;;;;;;5.33;3.53;;;5.60;99.90;;;;;;5095207;28;20689;-65
2022/04/05 04:20:05;;;;;;;3.93;3.53;;;5.60;99.90;;;;;;5077304;28;20206;-65
2022/04/05 04:22:31;;;;;;;5.23;4.57;;;5.60;99.90;;;;;;5094967;28;20170;-65
2022/04/05 04:24:57;;;;;;;6.27;4.30;;;5.60;99.90;;;;;;5094668;28;20178;-65
2022/04/05 04:27:24;;;;;;;5.63;4.70;;;5.60;99.90;;;;;;5094953;28;20161;-66
2022/04/05 04:29:50;;;;;;;5.00;3.33;;;5.60;99.90;;;;;;5078322;28;20514;-66
2022/04/05 04:32:16;;;;;;;4.53;3.70;;;5.60;99.90;;;;;;5097187;28;20190;-66
2022/04/05 04:34:41;;;;;;;5.03;4.10;;;5.60;99.90;;;;;;5097557;28;20465;-65
2022/04/05 04:37:07;;;;;;;5.43;3.87;;;5.60;99.90;;;;;;5089937;28;20229;-65
2022/04/05 04:39:33;;;;;;;5.00;4.20;;;5.50;99.90;;;;;;5076864;28;20229;-65
2022/04/05 04:41:59;;;;;;;4.60;4.10;;;5.60;99.90;;;;;;5073105;28;20209;-65
2022/04/05 04:44:26;;;;;;;4.97;3.53;;;5.60;99.90;;;;;;5073345;28;20210;-65
2022/04/05 04:46:52;;;;;;;4.50;3.73;;;5.50;99.90;;;;;;5074155;28;20602;-65
2022/04/05 04:49:18;;;;;;;4.27;3.80;;;5.50;99.90;;;;;;5074691;28;20164;-65
2022/04/05 04:51:43;;;;;;;4.43;4.00;;;5.70;99.90;;;;;;5054913;28;20167;-65
2022/04/05 04:54:09;;;;;;;5.13;3.87;;;5.70;99.90;;;;;;5073065;28;20172;-65
2022/04/05 04:56:34;;;;;;;4.43;4.00;;;5.60;99.90;;;;;;5072634;28;20226;-64
2022/04/05 04:59:00;;;;;;;5.00;4.03;;;5.70;99.90;;;;;;5073756;28;20201;-66
2022/04/05 05:01:26;;;;;;;5.00;3.87;;;5.70;99.90;;;;;;5077723;28;20182;-66
2022/04/05 05:03:52;;;;;;;4.07;3.67;;;5.90;99.90;;;;;;5077876;28;20165;-65
2022/04/05 05:06:18;;;;;;;3.90;3.50;;;5.80;99.90;;;;;;5077049;28;20185;-65
2022/04/05 05:08:43;;;;;;;4.27;3.57;;;5.80;99.90;;;;;;5077077;28;20215;-65
2022/04/05 05:11:11;;;;;;;4.80;3.83;;;5.80;99.90;;;;;;5076966;28;20164;-67
2022/04/05 05:13:37;;;;;;;4.20;3.60;;;5.80;99.90;;;;;;5076666;28;20212;-67
2022/04/05 05:16:02;;;;;;;4.00;3.60;;;5.90;99.90;;;;;;5112468;28;20575;-66
2022/04/05 05:18:28;;;;;;;4.50;4.10;;;5.90;99.90;;;;;;5117955;28;20197;-66
2022/04/05 05:20:54;;;;;;;4.23;3.83;;;6.00;99.90;;;;;;5099841;28;20566;-65
2022/04/05 05:23:20;;;;;;;3.67;2.80;;;6.00;99.90;;;;;;5117670;28;20168;-64
2022/04/05 05:25:47;;;;;;;4.40;3.30;;;6.00;99.90;;;;;;5099551;28;20189;-66
2022/04/05 05:28:13;;;;;;;3.43;2.70;;;6.10;99.90;;;;;;5117443;28;20226;-66
2022/04/05 05:30:39;;;;;;;3.50;3.20;;;6.00;99.90;;;;;;5117151;28;20292;-64
2022/04/05 05:33:05;;;;;;;4.53;2.80;;;6.00;99.90;;;;;;5099641;28;20651;-66
2022/04/05 05:35:31;;;;;;;3.37;3.07;;;6.10;99.90;;;;;;5099667;28;20500;-66
2022/04/05 05:37:57;;;;;;;4.40;3.20;;;6.10;99.90;;;;;;5118148;28;20202;-65
2022/04/05 05:40:24;;;;;;;3.27;2.97;;;6.10;99.90;;;;;;5117388;28;20222;-65
2022/04/05 05:42:59;;;;;;;3.57;3.03;;;6.20;99.90;;;;;;5099355;28;20166;-65
2022/04/05 05:45:27;;;;;;;3.63;3.13;;;6.20;99.90;;;;;;5118038;28;20546;-66
2022/04/05 05:47:53;;;;;;;3.50;2.67;;;6.20;99.90;;;;;;5117765;28;20170;-66
2022/04/05 05:50:19;;;;;;;3.10;2.80;;;6.20;99.90;;;;;;5117113;28;20599;-65
2022/04/05 05:52:45;;;;;;;2.30;2.03;;;6.30;99.90;;;;;;5117166;28;20170;-65
2022/04/05 05:55:14;;;;;;;2.27;1.90;;;6.40;99.90;;;;;;5097315;28;20241;-65
2022/04/05 05:57:41;;;;;;;1.70;1.60;;;6.30;99.90;;;;;;5096150;28;20206;-66
2022/04/05 06:00:17;;;;;;;1.80;1.50;;;6.30;99.90;;;;;;5078877;28;20208;-65
2022/04/05 06:02:43;;;;;;;2.20;2.00;;;6.40;99.90;;;;;;5096323;28;20151;-64
2022/04/05 06:05:09;;;;;;;2.87;1.83;;;6.40;99.90;;;;;;5096723;28;20174;-65
2022/04/05 06:07:35;;;;;;;2.20;1.80;;;6.40;99.90;;;;;;5096458;28;20174;-65
2022/04/05 06:10:03;;;;;;;2.13;1.80;;;6.30;99.90;;;;;;5096309;28;20596;-65
2022/04/05 06:12:28;;;;;;;2.37;2.17;;;6.40;99.90;;;;;;5095561;28;20692;-64
2022/04/05 06:14:54;;;;;;;1.87;1.70;;;6.40;99.90;;;;;;5097199;28;20163;-65
2022/04/05 06:17:20;;;;;;;6.03;3.00;;;6.40;99.90;;;;;;5096271;28;20299;-65
2022/04/05 06:19:46;;;;;;;5.50;1.83;;;6.40;99.90;;;;;;5095325;28;20306;-65
2022/04/05 06:22:13;;;;;;;2.00;1.73;;;6.40;99.90;;;;;;5078523;28;20185;-64
2022/04/05 06:24:39;;;;;;;3.70;1.80;;;6.40;99.90;;;;;;5078302;28;20199;-64
2022/04/05 06:27:05;;;;;;;2.17;1.90;;;6.50;99.90;;;;;;5096307;28;20163;-64
2022/04/05 06:29:31;;;;;;;2.23;2.00;;;6.40;99.90;;;;;;5096319;28;20171;-65
2022/04/05 06:31:57;;;;;;;2.10;1.90;;;6.40;99.90;;;;;;5095865;28;20556;-65
2022/04/05 06:34:25;;;;;;;2.60;1.90;;;6.40;99.90;;;;;;5078107;28;20181;-66
2022/04/05 06:36:51;;;;;;;3.47;2.47;;;6.40;99.90;;;;;;5096006;28;20167;-65
2022/04/05 06:39:17;;;;;;;1.77;1.67;;;6.50;99.90;;;;;;5095633;28;20202;-65
2022/04/05 06:41:42;;;;;;;2.37;2.00;;;6.60;99.90;;;;;;5095746;28;20163;-66
2022/04/05 06:44:08;;;;;;;3.03;2.00;;;6.60;99.90;;;;;;5095833;28;20500;-65
2022/04/05 06:46:34;;;;;;;2.80;2.30;;;6.70;99.90;;;;;;5095771;28;20296;-64
2022/04/05 06:48:59;;;;;;;2.60;1.90;;;6.70;99.90;;;;;;5095820;28;20171;-64
2022/04/05 06:51:25;;;;;;;2.30;2.03;;;6.60;99.90;;;;;;5096299;28;20166;-65
2022/04/05 06:53:51;;;;;;;2.63;1.70;;;6.70;99.90;;;;;;5097240;28;20524;-66
2022/04/05 06:56:21;;;;;;;1.83;1.63;;;6.80;99.90;;;;;;5099831;28;20244;-66
2022/04/05 06:58:47;;;;;;;2.57;2.03;;;6.90;99.90;;;;;;5098719;28;20190;-64
2022/04/05 07:01:13;;;;;;;2.77;1.77;;;6.90;99.90;;;;;;5099947;28;20169;-64
2022/04/05 07:03:39;;;;;;;4.80;1.60;;;7.00;99.90;;;;;;5079848;28;20194;-65
2022/04/05 07:06:04;;;;;;;2.10;1.90;;;6.90;99.90;;;;;;5098432;28;20182;-65
2022/04/05 07:08:31;;;;;;;2.13;1.93;;;6.90;99.90;;;;;;5099701;28;20174;-64
2022/04/05 07:10:56;;;;;;;1.80;1.70;;;6.90;99.90;;;;;;5099801;28;20170;-65
2022/04/05 07:13:22;;;;;;;3.47;2.50;;;6.90;99.90;;;;;;5100202;28;20515;-65
2022/04/05 07:15:48;;;;;;;3.97;2.10;;;7.10;99.90;;;;;;5099902;28;20156;-67
2022/04/05 07:18:14;;;;;;;2.07;1.80;;;7.10;99.90;;;;;;5077958;28;20262;-64
2022/04/05 07:20:39;;;;;;;2.50;1.83;;;7.20;99.90;;;;;;5094776;28;20527;-65
2022/04/05 07:23:05;;;;;;;2.17;1.90;;;7.10;99.90;;;;;;5095938;28;20203;-64
2022/04/05 07:25:34;;;;;;;4.17;2.23;;;7.10;99.90;;;;;;5096017;28;20625;-63
2022/04/05 07:28:02;;;;;;;3.27;2.20;;;7.20;99.90;;;;;;5096260;28;20163;-65
2022/04/05 07:30:28;;;;;;;2.63;2.37;;;7.30;99.90;;;;;;5095937;28;20187;-66
2022/04/05 07:32:55;;;;;;;3.60;1.83;;;7.40;99.90;;;;;;5095339;28;20177;-65
2022/04/05 07:35:20;;;;;;;2.20;1.90;;;7.40;99.90;;;;;;5094913;28;20161;-65
2022/04/05 07:37:47;;;;;;;2.37;2.00;;;7.40;99.90;;;;;;5094800;28;20266;-65
2022/04/05 07:40:13;;;;;;;2.40;2.10;;;7.50;99.90;;;;;;5096097;28;20279;-64
2022/04/05 07:42:40;;;;;;;2.13;1.87;;;7.50;99.90;;;;;;5094763;28;20248;-65
2022/04/05 07:45:07;;;;;;;2.43;1.83;;;7.50;99.90;;;;;;5094335;28;20169;-64
2022/04/05 07:47:34;;;;;;;2.27;2.07;;;7.60;99.90;;;;;;5094301;28;20169;-65
2022/04/05 07:49:59;;;;;;;2.73;2.30;;;7.60;99.90;;;;;;5094380;28;20219;-65
2022/04/05 07:52:25;;;;;;;1.80;1.70;;;7.70;99.90;;;;;;5094353;28;20272;-65
2022/04/05 07:54:50;;;;;;;2.50;2.20;;;7.80;99.90;;;;;;5094411;28;20678;-65
2022/04/05 07:57:16;;;;;;;4.03;2.03;;;7.80;99.90;;;;;;5077116;28;20176;-65
2022/04/05 07:59:42;;;;;;;3.60;1.90;;;7.80;99.90;;;;;;5094963;28;20163;-65
2022/04/05 08:02:08;;;;;;;3.03;2.40;;;7.90;99.90;;;;;;5095293;28;20176;-65
2022/04/05 08:04:34;;;;;;;3.20;2.30;;;8.00;99.90;;;;;;5095651;28;20171;-65
2022/04/05 08:07:00;;;;;;;2.93;2.40;;;8.00;99.90;;;;;;5095138;28;20178;-65
2022/04/05 08:09:25;;;;;;;2.73;2.30;;;8.00;99.90;;;;;;5094557;28;20202;-65
2022/04/05 08:11:51;;;;;;;2.00;1.80;;;8.10;99.90;;;;;;5094331;28;20168;-65
2022/04/05 08:14:17;;;;;;;2.17;1.97;;;8.10;99.90;;;;;;5093871;28;20509;-66
2022/04/05 08:16:42;;;;;;;2.23;2.03;;;8.10;99.90;;;;;;5093676;28;20170;-65
2022/04/05 08:19:09;;;;;;;2.53;2.20;;;8.10;99.90;;;;;;5075673;28;20201;-66
2022/04/05 08:21:36;;;;;;;2.17;1.97;;;8.20;99.90;;;;;;5093964;28;20190;-66
2022/04/05 08:24:02;;;;;;;2.70;2.33;;;8.20;99.90;;;;;;5076090;28;20178;-66
2022/04/05 08:26:28;;;;;;;2.27;2.07;;;8.20;99.90;;;;;;5094845;28;20249;-65
2022/04/05 08:28:57;;;;;;;3.27;2.27;;;8.20;99.90;;;;;;5094503;28;20246;-65
2022/04/05 08:31:25;;;;;;;2.30;2.10;;;8.20;99.90;;;;;;5093590;28;20163;-66
2022/04/05 08:33:52;;;;;;;2.70;2.23;;;8.20;99.90;;;;;;5093381;28;20255;-64
2022/04/05 08:36:17;;;;;;;2.63;2.30;;;8.20;99.90;;;;;;5093720;28;20185;-65
2022/04/05 08:38:43;;;;;;;2.57;2.37;;;8.20;99.90;;;;;;5093722;28;20248;-65
2022/04/05 08:41:10;;;;;;;3.97;2.10;;;8.30;99.90;;;;;;5088831;28;20174;-65
2022/04/05 08:43:37;;;;;;;2.53;2.10;;;8.30;99.90;;;;;;5073247;28;20214;-65
2022/04/05 08:46:05;;;;;;;2.47;2.27;;;8.30;99.90;;;;;;5073610;28;20170;-66
2022/04/05 08:48:31;;;;;;;2.90;2.17;;;8.40;99.90;;;;;;5074043;28;20182;-65
2022/04/05 08:50:58;;;;;;;5.17;1.97;;;8.40;99.90;;;;;;5076303;28;20230;-66
2022/04/05 08:53:24;;;;;;;2.73;2.17;;;8.40;99.90;;;;;;5075814;28;20163;-64
2022/04/05 08:55:53;;;;;;;3.70;2.20;;;8.40;99.90;;;;;;5074423;28;20221;-67
2022/04/05 08:58:19;;;;;;;2.00;1.83;;;8.50;99.90;;;;;;5074946;28;20239;-66
2022/04/05 09:00:45;;;;;;;241.00;106.37;;;8.50;99.90;;;;;;5074247;28;20490;-64
2022/04/05 09:03:10;;;;;;;2.37;2.17;;;8.60;99.90;;;;;;5074193;28;20155;-65
2022/04/05 09:05:37;;;;;;;1.90;1.80;;;8.60;99.90;;;;;;5056696;28;20186;-65
2022/04/05 09:08:21;;;;;;;2.30;2.10;;;8.60;99.90;;;;;;5073826;28;20170;-65
2022/04/05 09:10:52;;;;;;;2.50;1.97;;;8.60;99.90;;;;;;5072690;28;20615;-66
2022/04/05 09:13:23;;;;;;;2.93;1.87;;;8.60;99.90;;;;;;5073971;28;20197;-64
2022/04/05 09:15:51;;;;;;;2.03;1.90;;;8.70;99.90;;;;;;5073444;28;20159;-64
2022/04/05 09:18:40;;;;;;;2.20;2.00;;;8.80;99.90;;;;;;5073541;28;20198;-65
2022/04/05 09:21:10;;;;;;;2.43;2.20;;;8.80;99.90;;;;;;5069513;28;20198;-66
2022/04/05 09:23:38;;;;;;;4.17;2.43;;;8.80;99.90;;;;;;5075131;28;20246;-64
2022/04/05 09:26:15;;;;;;;6.80;3.17;;;8.80;99.90;;;;;;5090320;28;20230;-65
2022/04/05 09:28:47;;;;;;;2.00;1.73;;;8.90;99.90;;;;;;5071469;28;20243;-66
2022/04/05 09:31:15;;;;;;;2.30;2.10;;;8.80;99.90;;;;;;5091185;28;20179;-65
2022/04/05 09:34:13;;;;;;;3.57;2.60;;;8.80;99.90;;;;;;5075763;28;20183;-67
2022/04/05 09:36:43;;;;;;;2.20;2.00;;;8.30;99.90;;;;;;5074501;28;20183;-66
2022/04/05 09:39:10;;;;;;;2.47;1.93;;;7.80;99.90;;;;;;5073589;28;20225;-65
2022/04/05 09:41:35;;;;;;;8.00;4.83;;;7.70;99.90;;;;;;5076284;28;20586;-65
2022/04/05 09:44:02;;;;;;;5.40;3.00;;;7.60;99.90;;;;;;5091946;28;20177;-65
2022/04/05 09:46:28;;;;;;;3.07;2.17;;;7.50;99.90;;;;;;5074813;28;20246;-65
2022/04/05 09:49:14;;;;;;;3.10;2.50;;;7.50;99.90;;;;;;5076805;28;20615;-66
2022/04/05 09:51:45;;;;;;;6.50;2.90;;;7.50;99.90;;;;;;5076678;28;20179;-64
2022/04/05 09:54:28;;;;;;;10.30;3.17;;;7.40;99.90;;;;;;5076337;28;20219;-65
2022/04/05 09:57:07;;;;;;;2.00;1.60;;;7.40;99.90;;;;;;5076964;28;20314;-65
2022/04/05 09:59:41;;;;;;;1.73;1.63;;;7.30;99.90;;;;;;5076922;28;20199;-65
2022/04/05 10:02:09;;;;;;;5.23;2.63;;;7.40;99.90;;;;;;5092464;28;20191;-66
2022/04/05 10:04:35;;;;;;;2.73;1.97;;;7.40;99.90;;;;;;5076564;28;20212;-65
2022/04/05 10:07:03;;;;;;;3.73;2.17;;;7.40;99.90;;;;;;5058783;28;20217;-65
2022/04/05 10:09:28;;;;;;;3.33;1.90;;;7.40;99.90;;;;;;5075886;28;20608;-64
2022/04/05 10:11:56;;;;;;;2.33;1.93;;;7.40;99.90;;;;;;5076465;28;20168;-64
2022/04/05 10:14:21;;;;;;;3.47;2.03;;;7.20;99.90;;;;;;5076170;28;20245;-66
2022/04/05 10:16:49;;;;;;;2.10;1.60;;;7.40;99.90;;;;;;5076001;28;20310;-65
2022/04/05 10:19:15;;;;;;;2.17;1.73;;;7.30;99.90;;;;;;5076043;28;20194;-64
2022/04/05 10:21:41;;;;;;;3.60;2.33;;;7.40;99.90;;;;;;5076016;28;20164;-67
2022/04/05 10:24:08;;;;;;;6.17;1.83;;;7.40;99.90;;;;;;5076588;28;20164;-65
2022/04/05 10:26:45;;;;;;;2.73;2.27;;;7.40;99.90;;;;;;5076780;28;20164;-66
2022/04/05 10:29:18;;;;;;;2.40;2.07;;;7.30;99.90;;;;;;5077533;28;20167;-65
2022/04/05 10:32:10;;;;;;;2.60;1.70;;;7.30;99.90;;;;;;5078820;28;20575;-65
2022/04/05 10:34:45;;;;;;;3.77;2.03;;;7.40;99.90;;;;;;5042415;28;20455;-64
2022/04/05 10:37:19;;;;;;;3.73;2.00;;;7.60;99.90;;;;;;5076113;28;20653;-67
2022/04/05 10:40:14;;;;;;;3.00;1.93;;;7.50;99.90;;;;;;5075968;28;20160;-67
2022/04/05 10:42:52;;;;;;;4.53;2.50;;;7.50;99.90;;;;;;5070486;28;20184;-67
2022/04/05 10:45:26;;;;;;;4.00;2.10;;;7.50;99.90;;;;;;5075567;28;20160;-65
2022/04/05 10:48:15;;;;;;;4.37;2.13;;;7.50;99.90;;;;;;5091745;28;20202;-67
2022/04/05 10:50:45;;;;;;;3.47;2.97;;;7.60;99.90;;;;;;5076601;28;20524;-66
2022/04/05 10:53:14;;;;;;;3.40;1.97;;;7.60;99.90;;;;;;5090870;28;20177;-67
2022/04/05 10:56:10;;;;;;;5.73;2.93;;;7.60;99.90;;;;;;5076982;28;20308;-66
2022/04/05 10:58:38;;;;;;;3.20;2.13;;;7.60;99.90;;;;;;5077056;28;20203;-66
2022/04/05 11:01:14;;;;;;;4.40;2.23;;;7.50;99.90;;;;;;5076524;28;20248;-66
2022/04/05 11:03:40;;;;;;;2.40;2.20;;;7.60;99.90;;;;;;5076056;28;20214;-66
2022/04/05 11:06:06;;;;;;;3.00;2.70;;;7.60;99.90;;;;;;5075237;28;20174;-65
2022/04/05 11:08:32;;;;;;;2.97;2.27;;;7.50;99.90;;;;;;5075073;28;20202;-65
2022/04/05 11:11:04;;;;;;;4.77;3.00;;;7.80;99.90;;;;;;5057086;28;20170;-66
2022/04/05 11:13:44;;;;;;;5.27;2.60;;;7.80;99.90;;;;;;5075022;28;20194;-66
2022/04/05 11:16:11;;;;;;;3.13;2.80;;;8.10;99.90;;;;;;5074939;28;20190;-66
2022/04/05 11:18:38;;;;;;;4.10;2.67;;;8.20;99.90;;;;;;5074607;28;20209;-68
2022/04/05 11:21:08;;;;;;;5.50;2.83;;;8.10;99.90;;;;;;5075150;28;20289;-66
2022/04/05 11:23:44;;;;;;;3.93;2.93;;;8.30;99.90;;;;;;5075080;28;20589;-67
2022/04/05 11:26:35;;;;;;;9.23;4.20;;;8.40;99.90;;;;;;5074762;28;20174;-65
2022/04/05 11:29:16;;;;;;;3.83;3.43;;;8.60;99.90;;;;;;5071026;28;20215;-66
2022/04/05 11:31:42;;;;;;;4.83;3.40;;;8.50;99.90;;;;;;5074328;28;20159;-67
2022/04/05 11:34:37;;;;;;;4.73;3.27;;;8.60;99.90;;;;;;5074518;28;20173;-66
2022/04/05 11:37:04;;;;;;;4.83;3.20;;;8.80;99.90;;;;;;5074821;28;20207;-67
2022/04/05 11:39:35;;;;;;;4.50;3.50;;;8.60;99.90;;;;;;5074869;28;20207;-67
2022/04/05 11:42:01;;;;;;;4.03;2.83;;;8.60;99.90;;;;;;5075759;28;20262;-65
2022/04/05 11:44:27;;;;;;;3.80;3.07;;;8.40;99.90;;;;;;5077536;28;20235;-65
2022/04/05 11:46:57;;;;;;;3.27;2.73;;;8.30;99.90;;;;;;5078195;28;20163;-66
2022/04/05 11:49:23;;;;;;;3.47;3.10;;;8.40;99.90;;;;;;5075523;28;20194;-66
2022/04/05 11:51:49;;;;;;;4.73;3.13;;;8.30;99.90;;;;;;5078942;28;20160;-67
2022/04/05 11:54:27;;;;;;;4.97;3.40;;;8.40;99.90;;;;;;5074114;28;20167;-64
2022/04/05 11:56:54;;;;;;;4.33;3.70;;;8.30;99.90;;;;;;5075921;28;20233;-66
2022/04/05 11:59:26;;;;;;;7.70;3.10;;;8.40;99.90;;;;;;5074257;28;20286;-66
2022/04/05 12:01:52;;;;;;;4.77;3.23;;;8.40;99.90;;;;;;5073660;28;20626;-65
2022/04/05 12:04:21;;;;;;;5.00;2.73;;;8.60;99.90;;;;;;5074537;28;20244;-66
2022/04/05 12:06:49;;;;;;;4.03;3.30;;;8.70;99.90;;;;;;5090256;28;20218;-65
2022/04/05 12:09:17;;;;;;;4.40;3.23;;;8.70;99.90;;;;;;5073764;28;20596;-66
2022/04/05 12:11:45;;;;;;;4.03;3.13;;;8.80;99.90;;;;;;5074006;28;20202;-67
2022/04/05 12:14:15;;;;;;;5.70;3.70;;;9.00;99.90;;;;;;5090347;28;20201;-67
2022/04/05 12:16:50;;;;;;;3.20;2.90;;;9.00;99.90;;;;;;5076061;28;20297;-67
2022/04/05 12:19:33;;;;;;;4.27;3.13;;;8.80;99.90;;;;;;5078222;28;20259;-67
2022/04/05 12:22:01;;;;;;;4.17;3.00;;;8.90;99.90;;;;;;5073821;28;20626;-67
2022/04/05 12:24:28;;;;;;;4.90;3.23;;;9.00;99.90;;;;;;5074171;28;20237;-66
2022/04/05 12:26:58;;;;;;;4.30;3.37;;;9.00;99.90;;;;;;5073766;28;20575;-66
2022/04/05 12:29:28;;;;;;;4.73;3.47;;;9.00;99.90;;;;;;5056538;28;20185;-68
2022/04/05 12:31:54;;;;;;;4.30;2.77;;;9.00;99.90;;;;;;5076217;28;20209;-66
2022/04/05 12:34:20;;;;;;;4.67;3.20;;;9.00;99.90;;;;;;5089450;28;20167;-66
2022/04/05 12:37:12;;;;;;;4.33;3.50;;;9.00;99.90;;;;;;5074158;28;20187;-66
2022/04/05 12:39:43;;;;;;;3.80;3.20;;;9.10;99.90;;;;;;5055474;28;20177;-66
2022/04/05 12:42:10;;;;;;;3.27;2.90;;;8.90;99.90;;;;;;5073857;28;20159;-66
2022/04/05 12:44:41;;;;;;;4.40;3.20;;;9.10;99.90;;;;;;5086383;28;20179;-66
2022/04/05 12:47:11;;;;;;;5.57;4.43;;;9.10;99.90;;;;;;5073486;28;20247;-65
2022/04/05 12:49:46;;;;;;;5.37;4.03;;;9.20;99.90;;;;;;5072049;28;20630;-65
2022/04/05 12:52:15;;;;;;;5.30;3.27;;;9.20;99.90;;;;;;5073818;28;20184;-68
2022/04/05 12:54:56;;;;;;;6.43;3.90;;;9.20;99.90;;;;;;5073273;28;20596;-66
2022/04/05 12:57:32;;;;;;;3.73;2.83;;;9.10;99.90;;;;;;5076273;28;20188;-69
2022/04/05 13:00:20;;;;;;;5.03;3.60;;;9.20;99.90;;;;;;5080937;28;20186;-68
2022/04/05 13:02:50;;;;;;;5.87;2.73;;;9.10;99.90;;;;;;5098043;28;20163;-66